createdAt,value
2022-08-17T00:06:54.391Z,18.25
2022-08-17T00:09:20.507Z,18.19
2022-08-17T00:12:40.986Z,18.15
2022-08-17T00:14:36.150Z,18.07
2022-08-17T00:17:04.745Z,18.04
2022-08-17T00:19:32.710Z,18.02
2022-08-17T00:22:31.974Z,18.03
2022-08-17T00:24:46.743Z,18.00
2022-08-17T00:27:12.883Z,17.99
2022-08-17T00:29:39.010Z,17.94
2022-08-17T00:33:13.866Z,17.92
2022-08-17T00:34:51.889Z,17.90
2022-08-17T00:37:18.048Z,17.86
2022-08-17T00:39:44.389Z,17.85
2022-08-17T00:42:18.778Z,17.84
2022-08-17T00:44:45.177Z,17.81
2022-08-17T00:47:11.300Z,17.77
2022-08-17T00:49:37.418Z,17.74
2022-08-17T00:52:15.503Z,17.69
2022-08-17T00:54:44.879Z,17.69
2022-08-17T00:57:21.645Z,17.67
2022-08-17T01:00:01.926Z,17.62
2022-08-17T01:02:34.368Z,17.61
2022-08-17T01:05:08.287Z,17.59
2022-08-17T01:07:34.845Z,17.56
2022-08-17T01:10:08.343Z,17.54
2022-08-17T01:12:54.534Z,17.52
2022-08-17T01:15:20.659Z,17.49
2022-08-17T01:17:47.417Z,17.47
2022-08-17T01:20:13.724Z,17.45
2022-08-17T01:22:39.931Z,17.44
2022-08-17T01:25:08.878Z,17.42
2022-08-17T01:27:37.771Z,17.40
2022-08-17T01:30:56.785Z,17.38
2022-08-17T01:32:54.449Z,17.34
2022-08-17T01:35:20.585Z,17.32
2022-08-17T01:37:46.762Z,17.30
2022-08-17T01:40:14.757Z,17.28
2022-08-17T01:42:50.642Z,17.25
2022-08-17T01:45:23.775Z,17.24
2022-08-17T01:47:51.025Z,17.23
2022-08-17T01:50:25.739Z,17.22
2022-08-17T01:52:56.446Z,17.21
2022-08-17T01:55:30.340Z,17.20
2022-08-17T01:57:56.485Z,17.20
2022-08-17T02:00:22.779Z,17.23
2022-08-17T02:02:49.067Z,17.20
2022-08-17T02:05:15.347Z,17.21
2022-08-17T02:07:59.966Z,17.18
2022-08-17T02:10:33.668Z,17.13
2022-08-17T02:13:01.566Z,17.08
2022-08-17T02:15:28.674Z,17.07
2022-08-17T02:17:55.004Z,17.05
2022-08-17T02:20:41.951Z,17.02
2022-08-17T02:23:10.653Z,17.01
2022-08-17T02:25:38.610Z,16.98
2022-08-17T02:28:05.050Z,16.94
2022-08-17T02:31:01.022Z,16.92
2022-08-17T02:33:17.309Z,16.89
2022-08-17T02:35:46.543Z,16.90
2022-08-17T02:38:12.852Z,16.92
2022-08-17T02:40:40.563Z,16.89
2022-08-17T02:43:08.893Z,16.88
2022-08-17T02:45:35.925Z,16.85
2022-08-17T02:48:02.945Z,16.84
2022-08-17T02:50:29.506Z,16.82
2022-08-17T02:53:01.778Z,16.80
2022-08-17T02:55:33.813Z,16.78
2022-08-17T02:58:00.017Z,16.78
2022-08-17T03:00:29.892Z,16.75
2022-08-17T03:02:57.385Z,16.74
2022-08-17T03:05:26.719Z,16.74
2022-08-17T03:07:53.283Z,16.75
2022-08-17T03:10:21.593Z,16.74
2022-08-17T03:12:48.191Z,16.72
2022-08-17T03:15:17.653Z,16.73
2022-08-17T03:17:44.245Z,16.72
2022-08-17T03:20:11.194Z,16.70
2022-08-17T03:22:48.053Z,16.73
2022-08-17T03:25:30.170Z,16.69
2022-08-17T03:27:56.833Z,16.66
2022-08-17T03:30:24.276Z,16.66
2022-08-17T03:32:52.779Z,16.65
2022-08-17T03:35:22.269Z,16.62
2022-08-17T03:37:48.631Z,16.63
2022-08-17T03:40:55.158Z,16.63
2022-08-17T03:43:13.702Z,16.65
2022-08-17T03:45:58.349Z,16.65
2022-08-17T03:48:43.729Z,16.65
2022-08-17T03:51:34.622Z,16.68
2022-08-17T03:54:19.392Z,16.69
2022-08-17T03:56:59.180Z,16.69
2022-08-17T03:59:25.379Z,16.68
2022-08-17T04:01:55.413Z,16.66
2022-08-17T04:04:21.607Z,16.67
2022-08-17T04:06:53.933Z,16.67
2022-08-17T04:09:20.056Z,16.70
2022-08-17T04:11:46.190Z,16.71
2022-08-17T04:14:12.326Z,16.73
2022-08-17T04:16:38.887Z,16.78
2022-08-17T04:19:06.202Z,16.82
2022-08-17T04:21:33.133Z,16.85
2022-08-17T04:23:59.301Z,16.88
2022-08-17T04:26:53.777Z,16.94
2022-08-17T04:29:11.616Z,17.00
2022-08-17T04:31:37.763Z,17.04
2022-08-17T04:34:03.895Z,17.08
2022-08-17T04:36:30.021Z,17.14
2022-08-17T04:38:58.233Z,17.22
2022-08-17T04:41:43.301Z,17.31
2022-08-17T04:44:09.564Z,17.41
2022-08-17T04:46:36.611Z,17.48
2022-08-17T04:49:06.117Z,17.58
2022-08-17T04:51:38.859Z,17.67
2022-08-17T04:54:14.973Z,17.74
2022-08-17T04:56:41.170Z,17.82
2022-08-17T04:59:12.363Z,17.90
2022-08-17T05:01:40.392Z,17.99
2022-08-17T05:04:21.466Z,18.07
2022-08-17T05:06:57.139Z,18.15
2022-08-17T05:09:23.307Z,18.27
2022-08-17T05:11:50.564Z,18.39
2022-08-17T05:14:16.726Z,18.50
2022-08-17T05:16:42.875Z,18.63
2022-08-17T05:19:09.058Z,18.76
2022-08-17T05:21:35.199Z,18.88
2022-08-17T05:24:01.362Z,19.04
2022-08-17T05:26:32.135Z,19.20
2022-08-17T05:29:03.064Z,19.35
2022-08-17T05:31:30.033Z,19.48
2022-08-17T05:33:56.190Z,19.61
2022-08-17T05:36:43.265Z,19.73
2022-08-17T05:39:08.617Z,19.88
2022-08-17T05:41:41.875Z,19.99
2022-08-17T05:44:08.011Z,20.10
2022-08-17T05:46:39.895Z,20.19
2022-08-17T05:49:08.150Z,20.26
2022-08-17T05:51:36.949Z,20.32
2022-08-17T05:54:43.070Z,20.37
2022-08-17T05:57:31.645Z,20.45
2022-08-17T06:00:09.999Z,20.53
2022-08-17T06:03:05.031Z,20.58
2022-08-17T06:05:51.528Z,20.62
2022-08-17T06:08:42.648Z,20.67
2022-08-17T06:11:36.923Z,20.68
2022-08-17T06:14:28.147Z,20.72
2022-08-17T06:17:00.673Z,20.76
2022-08-17T06:19:36.400Z,20.82
2022-08-17T06:22:05.895Z,20.90
2022-08-17T06:24:39.226Z,20.98
2022-08-17T06:27:37.362Z,21.06
2022-08-17T06:30:15.543Z,21.13
2022-08-17T06:32:47.356Z,21.21
2022-08-17T06:35:33.524Z,21.25
2022-08-17T06:38:21.837Z,21.35
2022-08-17T06:41:26.114Z,21.44
2022-08-17T06:44:03.131Z,21.56
2022-08-17T06:46:40.290Z,21.66
2022-08-17T06:49:22.244Z,21.75
2022-08-17T06:52:03.602Z,21.85
2022-08-17T06:54:50.951Z,21.95
2022-08-17T06:57:23.115Z,22.09
2022-08-17T06:59:56.408Z,22.16
2022-08-17T07:02:55.887Z,22.24
2022-08-17T07:05:27.883Z,22.36
2022-08-17T07:08:14.630Z,22.48
2022-08-17T07:10:47.988Z,22.66
2022-08-17T07:13:25.583Z,22.82
2022-08-17T07:15:57.397Z,22.99
2022-08-17T07:18:26.354Z,23.16
2022-08-17T07:20:59.838Z,23.34
2022-08-17T07:23:40.143Z,23.56
2022-08-17T07:26:07.914Z,23.74
2022-08-17T07:28:35.675Z,23.91
2022-08-17T07:31:04.738Z,24.05
2022-08-17T07:33:34.435Z,24.19
2022-08-17T07:36:01.012Z,24.38
2022-08-17T07:38:30.258Z,24.60
2022-08-17T07:41:02.213Z,24.79
2022-08-17T07:43:31.949Z,24.99
2022-08-17T07:46:38.528Z,25.19
2022-08-17T07:49:07.523Z,25.43
2022-08-17T07:51:53.803Z,25.66
2022-08-17T07:54:27.233Z,25.86
2022-08-17T07:56:54.478Z,26.00
2022-08-17T07:59:23.707Z,26.18
2022-08-17T08:02:01.007Z,26.35
2022-08-17T08:07:36.050Z,26.68
2022-08-17T08:10:16.052Z,26.90
2022-08-17T08:13:00.467Z,27.02
2022-08-17T08:15:36.595Z,27.04
2022-08-17T08:18:06.359Z,27.19
2022-08-17T08:20:54.556Z,27.22
2022-08-17T08:23:41.524Z,27.30
2022-08-17T08:26:46.478Z,27.33
2022-08-17T08:29:22.576Z,27.51
2022-08-17T08:32:15.169Z,27.65
2022-08-17T08:35:06.670Z,27.75
2022-08-17T08:37:58.056Z,27.86
2022-08-17T08:41:01.543Z,27.94
2022-08-17T08:43:58.547Z,28.04
2022-08-17T08:46:35.435Z,28.17
2022-08-17T08:49:34.012Z,28.28
2022-08-17T08:52:22.776Z,28.31
2022-08-17T08:54:57.393Z,28.40
2022-08-17T08:57:38.375Z,28.52
2022-08-17T09:00:15.727Z,28.62
2022-08-17T09:03:11.252Z,28.73
2022-08-17T09:05:56.279Z,28.79
2022-08-17T09:08:34.385Z,28.91
2022-08-17T09:11:29.127Z,28.95
2022-08-17T09:14:21.904Z,28.81
2022-08-17T09:17:06.334Z,28.79
2022-08-17T09:19:41.081Z,28.93
2022-08-17T09:22:16.506Z,29.02
2022-08-17T09:25:15.790Z,29.12
2022-08-17T09:27:52.716Z,29.24
2022-08-17T09:30:19.723Z,29.30
2022-08-17T09:32:52.191Z,29.37
2022-08-17T09:35:33.613Z,29.49
2022-08-17T09:38:13.313Z,29.44
2022-08-17T09:40:55.398Z,29.43
2022-08-17T09:43:36.334Z,29.57
2022-08-17T09:46:09.248Z,29.70
2022-08-17T09:49:02.636Z,29.71
2022-08-17T09:51:34.928Z,29.64
2022-08-17T09:54:34.913Z,29.84
2022-08-17T09:57:32.184Z,30.03
2022-08-17T10:00:09.754Z,29.98
2022-08-17T10:03:21.986Z,30.14
2022-08-17T10:06:24.522Z,30.38
2022-08-17T10:09:07.432Z,30.59
2022-08-17T10:12:03.454Z,30.62
2022-08-17T10:14:44.396Z,30.94
2022-08-17T10:17:38.455Z,31.15
2022-08-17T10:20:29.382Z,31.33
2022-08-17T10:23:35.636Z,31.53
2022-08-17T10:26:16.885Z,31.57
2022-08-17T10:29:05.007Z,31.42
2022-08-17T10:31:42.688Z,31.17
2022-08-17T10:34:41.034Z,31.47
2022-08-17T10:37:19.956Z,31.03
2022-08-17T10:39:57.524Z,31.08
2022-08-17T10:42:36.751Z,31.04
2022-08-17T10:45:18.376Z,30.99
2022-08-17T10:48:05.287Z,30.86
2022-08-17T10:51:02.602Z,30.87
2022-08-17T10:53:31.436Z,30.99
2022-08-17T10:56:12.541Z,30.89
2022-08-17T10:58:45.417Z,31.17
2022-08-17T11:01:12.801Z,31.38
2022-08-17T11:03:54.996Z,31.80
2022-08-17T11:06:35.969Z,32.17
2022-08-17T11:09:10.499Z,32.50
2022-08-17T11:11:36.503Z,32.66
2022-08-17T11:14:32.417Z,32.87
2022-08-17T11:17:41.453Z,33.11
2022-08-17T11:20:13.166Z,33.33
2022-08-17T11:23:10.214Z,33.57
2022-08-17T11:25:40.095Z,33.65
2022-08-17T11:28:36.005Z,33.48
2022-08-17T11:31:10.044Z,33.76
2022-08-17T11:33:36.802Z,33.98
2022-08-17T11:36:19.641Z,34.20
2022-08-17T11:38:46.273Z,34.40
2022-08-17T11:41:47.103Z,34.45
2022-08-17T11:44:29.023Z,34.04
2022-08-17T11:47:28.066Z,34.21
2022-08-17T11:50:31.110Z,34.42
2022-08-17T11:52:57.295Z,34.52
2022-08-17T11:55:36.314Z,33.77
2022-08-17T11:58:27.567Z,33.91
2022-08-17T12:00:56.652Z,33.87
2022-08-17T12:03:43.269Z,33.79
2022-08-17T12:06:30.326Z,33.18
2022-08-17T12:09:06.890Z,32.64
2022-08-17T12:11:55.529Z,32.64
2022-08-17T12:14:51.657Z,32.60
2022-08-17T12:17:40.092Z,32.76
2022-08-17T12:20:12.919Z,32.43
2022-08-17T12:22:53.454Z,32.56
2022-08-17T12:25:46.515Z,32.73
2022-08-17T12:28:29.574Z,33.12
2022-08-17T12:31:03.731Z,32.85
2022-08-17T12:33:30.446Z,33.10
2022-08-17T12:36:08.924Z,33.77
2022-08-17T12:38:37.933Z,33.71
2022-08-17T12:41:25.452Z,33.96
2022-08-17T12:43:58.692Z,33.76
2022-08-17T12:46:24.833Z,33.93
2022-08-17T12:48:59.051Z,33.67
2022-08-17T12:51:26.201Z,33.62
2022-08-17T12:53:54.867Z,33.57
2022-08-17T12:56:21.147Z,33.95
2022-08-17T12:58:56.487Z,34.26
2022-08-17T13:01:25.044Z,34.21
2022-08-17T13:03:55.298Z,33.88
2022-08-17T13:06:33.730Z,33.43
2022-08-17T13:09:12.191Z,33.61
2022-08-17T13:11:53.484Z,33.55
2022-08-17T13:14:20.011Z,33.65
2022-08-17T13:16:53.675Z,33.87
2022-08-17T13:19:39.753Z,33.93
2022-08-17T13:22:11.704Z,34.20
2022-08-17T13:24:38.717Z,34.16
2022-08-17T13:27:09.758Z,34.30
2022-08-17T13:29:44.277Z,34.41
2022-08-17T13:32:13.679Z,34.16
2022-08-17T13:35:07.802Z,34.18
2022-08-17T13:37:34.682Z,34.18
2022-08-17T13:40:29.110Z,33.98
2022-08-17T13:42:57.022Z,33.81
2022-08-17T13:45:36.022Z,33.94
2022-08-17T13:48:10.917Z,34.21
2022-08-17T13:51:03.913Z,34.66
2022-08-17T13:53:51.257Z,34.84
2022-08-17T13:56:44.821Z,35.00
2022-08-17T13:59:55.309Z,35.34
2022-08-17T14:02:11.308Z,35.54
2022-08-17T14:04:44.349Z,35.61
2022-08-17T14:07:13.472Z,35.80
2022-08-17T14:09:53.318Z,35.84
2022-08-17T14:12:23.073Z,35.86
2022-08-17T14:14:49.803Z,35.93
2022-08-17T14:17:15.969Z,36.11
2022-08-17T14:19:42.381Z,36.26
2022-08-17T14:22:14.559Z,36.35
2022-08-17T14:24:44.726Z,36.36
2022-08-17T14:27:12.030Z,36.23
2022-08-17T14:29:38.510Z,36.15
2022-08-17T14:32:18.044Z,36.06
2022-08-17T14:34:45.304Z,36.20
2022-08-17T14:37:12.326Z,36.07
2022-08-17T14:39:38.535Z,36.11
2022-08-17T14:42:04.712Z,36.08
2022-08-17T14:44:30.831Z,35.96
2022-08-17T14:46:56.957Z,35.95
2022-08-17T14:49:23.935Z,35.97
2022-08-17T14:51:50.442Z,35.84
2022-08-17T14:54:32.952Z,35.82
2022-08-17T14:57:22.231Z,36.01
2022-08-17T14:59:47.228Z,35.98
2022-08-17T15:02:18.302Z,35.95
2022-08-17T15:04:47.717Z,35.73
2022-08-17T15:07:14.969Z,35.59
2022-08-17T15:09:41.083Z,35.43
2022-08-17T15:12:07.596Z,35.34
2022-08-17T15:14:35.474Z,35.24
2022-08-17T15:17:04.473Z,35.18
2022-08-17T15:19:30.719Z,35.23
2022-08-17T15:21:56.860Z,35.57
2022-08-17T15:24:22.974Z,36.02
2022-08-17T15:26:49.103Z,36.25
2022-08-17T15:29:15.331Z,36.53
2022-08-17T15:31:41.498Z,36.44
2022-08-17T15:34:07.966Z,36.35
2022-08-17T15:36:34.935Z,36.20
2022-08-17T15:39:01.060Z,35.87
2022-08-17T15:41:28.233Z,35.49
2022-08-17T15:43:55.162Z,35.19
2022-08-17T15:46:25.526Z,35.02
2022-08-17T15:48:59.001Z,35.04
2022-08-17T15:51:28.618Z,34.89
2022-08-17T15:53:58.608Z,34.83
2022-08-17T15:56:26.161Z,34.71
2022-08-17T15:58:53.099Z,34.63
2022-08-17T16:03:01.792Z,34.62
2022-08-17T16:04:30.639Z,34.60
2022-08-17T16:06:54.207Z,34.59
2022-08-17T16:09:20.323Z,34.33
2022-08-17T16:11:46.455Z,33.97
2022-08-17T16:14:21.517Z,33.95
2022-08-17T16:16:49.295Z,34.00
2022-08-17T16:19:15.431Z,33.92
2022-08-17T16:21:42.672Z,33.76
2022-08-17T16:24:12.757Z,33.63
2022-08-17T16:26:40.991Z,33.20
2022-08-17T16:29:07.568Z,32.88
2022-08-17T16:31:33.823Z,32.89
2022-08-17T16:34:16.134Z,33.06
2022-08-17T16:36:51.659Z,33.24
2022-08-17T16:39:22.742Z,33.10
2022-08-17T16:41:49.637Z,32.91
2022-08-17T16:44:18.691Z,32.70
2022-08-17T16:46:46.616Z,32.30
2022-08-17T16:49:33.621Z,32.13
2022-08-17T16:52:01.709Z,32.04
2022-08-17T16:54:27.827Z,31.93
2022-08-17T16:56:53.974Z,31.80
2022-08-17T16:59:30.769Z,31.66
2022-08-17T17:02:10.726Z,31.47
2022-08-17T17:04:44.126Z,31.38
2022-08-17T17:07:45.979Z,31.29
2022-08-17T17:10:19.994Z,31.24
2022-08-17T17:13:02.369Z,31.14
2022-08-17T17:15:44.835Z,31.01
2022-08-17T17:18:13.177Z,30.91
2022-08-17T17:20:47.873Z,30.83
2022-08-17T17:23:52.727Z,30.79
2022-08-17T17:26:40.884Z,30.70
2022-08-17T17:29:48.502Z,30.60
2022-08-17T17:32:55.675Z,30.44
2022-08-17T17:35:44.978Z,30.29
2022-08-17T17:38:21.470Z,30.19
2022-08-17T17:40:51.295Z,30.04
2022-08-17T17:43:38.427Z,29.91
2022-08-17T17:46:27.352Z,29.72
2022-08-17T17:48:55.259Z,29.55
2022-08-17T17:51:55.053Z,29.38
2022-08-17T17:54:36.447Z,29.17
2022-08-17T17:57:13.731Z,28.97
2022-08-17T17:59:58.086Z,28.81
2022-08-17T18:02:52.859Z,28.64
2022-08-17T18:05:31.718Z,28.47
2022-08-17T18:08:31.958Z,28.31
2022-08-17T18:11:24.676Z,28.12
2022-08-17T18:14:19.579Z,27.91
2022-08-17T18:16:46.597Z,27.67
2022-08-17T18:19:14.881Z,27.51
2022-08-17T18:21:44.780Z,27.38
2022-08-17T18:24:11.579Z,27.24
2022-08-17T18:26:52.286Z,27.10
2022-08-17T18:29:27.599Z,26.95
2022-08-17T18:32:25.253Z,26.79
2022-08-17T18:35:27.724Z,26.63
2022-08-17T18:38:20.327Z,26.48
2022-08-17T18:40:56.437Z,26.34
2022-08-17T18:43:43.881Z,26.26
2022-08-17T18:46:37.685Z,26.16
2022-08-17T18:49:23.865Z,26.07
2022-08-17T18:52:12.500Z,25.99
2022-08-17T18:54:38.876Z,25.91
2022-08-17T18:57:07.150Z,25.86
2022-08-17T18:59:45.452Z,25.81
2022-08-17T19:02:22.078Z,25.68
2022-08-17T19:05:02.953Z,25.54
2022-08-17T19:07:48.129Z,25.41
2022-08-17T19:10:24.967Z,25.31
2022-08-17T19:13:13.072Z,25.22
2022-08-17T19:16:12.148Z,25.12
2022-08-17T19:18:45.200Z,25.04
2022-08-17T19:21:36.373Z,24.96
2022-08-17T19:24:19.905Z,24.88
2022-08-17T19:26:59.432Z,24.80
2022-08-17T19:29:45.656Z,24.76
2022-08-17T19:32:17.585Z,24.70
2022-08-17T19:34:44.814Z,24.67
2022-08-17T19:38:05.374Z,24.61
2022-08-17T19:41:00.279Z,24.50
2022-08-17T19:43:32.108Z,24.41
2022-08-17T19:46:26.990Z,24.30
2022-08-17T19:49:36.758Z,24.24
2022-08-17T19:52:30.335Z,24.20
2022-08-17T19:55:43.621Z,24.25
2022-08-17T19:58:53.601Z,24.24
2022-08-17T20:01:44.159Z,24.18
2022-08-17T20:04:33.877Z,24.17
2022-08-17T20:07:06.205Z,24.12
2022-08-17T20:09:44.329Z,24.06
2022-08-17T20:12:16.751Z,24.00
2022-08-17T20:14:53.317Z,23.96
2022-08-17T20:17:20.657Z,23.97
2022-08-17T20:20:02.578Z,23.96
2022-08-17T20:22:36.928Z,23.97
2022-08-17T20:25:38.224Z,23.94
2022-08-17T20:28:28.069Z,23.91
2022-08-17T20:30:54.846Z,23.91
2022-08-17T20:33:37.637Z,23.98
2022-08-17T20:36:19.409Z,24.01
2022-08-17T20:38:51.509Z,24.01
2022-08-17T20:41:23.762Z,24.02
2022-08-17T20:43:58.972Z,24.07
2022-08-17T20:46:51.646Z,24.08
2022-08-17T20:49:47.629Z,24.04
2022-08-17T20:52:53.774Z,23.98
2022-08-17T20:55:51.623Z,23.96
2022-08-17T20:58:24.598Z,23.94
2022-08-17T21:00:57.144Z,23.91
2022-08-17T21:03:23.393Z,23.91
2022-08-17T21:06:17.555Z,23.86
2022-08-17T21:08:54.725Z,23.84
2022-08-17T21:12:03.155Z,23.82
2022-08-17T21:14:44.719Z,23.90
2022-08-17T21:17:36.256Z,23.93
2022-08-17T21:20:14.863Z,23.95
2022-08-17T21:22:46.740Z,23.98
2022-08-17T21:26:00.109Z,23.97
2022-08-17T21:29:01.710Z,23.93
2022-08-17T21:32:06.880Z,23.91
2022-08-17T21:34:45.166Z,23.93
2022-08-17T21:37:20.065Z,23.93
2022-08-17T21:39:52.854Z,23.96
2022-08-17T21:42:25.819Z,23.93
2022-08-17T21:44:58.028Z,23.91
2022-08-17T21:47:27.410Z,23.87
2022-08-17T21:49:55.609Z,23.84
2022-08-17T21:52:24.658Z,23.78
2022-08-17T21:54:57.611Z,23.75
2022-08-17T21:57:27.662Z,23.75
2022-08-17T21:59:58.989Z,23.71
2022-08-17T22:02:34.628Z,23.69
2022-08-17T22:05:04.373Z,23.68
2022-08-17T22:07:37.185Z,23.65
2022-08-17T22:10:05.925Z,23.67
2022-08-17T22:12:32.068Z,23.68
2022-08-17T22:15:07.391Z,23.69
2022-08-17T22:17:36.621Z,23.65
2022-08-17T22:20:16.851Z,23.60
2022-08-17T22:23:04.936Z,23.57
2022-08-17T22:25:36.192Z,23.55
2022-08-17T22:28:12.645Z,23.51
2022-08-17T22:30:42.827Z,23.46
2022-08-17T22:33:27.866Z,23.42
2022-08-17T22:36:25.754Z,23.39
2022-08-17T22:39:13.570Z,23.35
2022-08-17T22:41:52.618Z,23.32
2022-08-17T22:44:36.353Z,23.31
2022-08-17T22:47:11.157Z,23.30
2022-08-17T22:49:54.242Z,23.30
2022-08-17T22:53:01.859Z,23.30
2022-08-17T22:55:50.349Z,23.26
2022-08-17T22:58:39.855Z,23.24
2022-08-17T23:01:34.832Z,23.21
2022-08-17T23:04:06.779Z,23.18
2022-08-17T23:06:35.155Z,23.17
2022-08-17T23:09:03.462Z,23.13
2022-08-17T23:11:49.568Z,23.12
2022-08-17T23:14:19.275Z,23.09
2022-08-17T23:16:45.658Z,23.10
2022-08-17T23:19:15.411Z,23.10
2022-08-17T23:21:44.791Z,23.07
2022-08-17T23:24:16.054Z,23.07
2022-08-17T23:26:42.263Z,23.04
2022-08-17T23:29:09.463Z,23.05
2022-08-17T23:31:38.605Z,23.02
2022-08-17T23:34:09.311Z,23.04
2022-08-17T23:36:35.809Z,23.02
2022-08-17T23:39:01.960Z,22.97
2022-08-17T23:41:32.614Z,22.93
2022-08-17T23:44:00.309Z,22.89
2022-08-17T23:46:26.465Z,22.86
2022-08-17T23:48:54.137Z,22.82
2022-08-17T23:51:29.274Z,22.79
2022-08-17T23:53:58.190Z,22.75
